Time;durP1;ratioP1;P1;durP2;ratioP2;P2;SDS_P1;SDS_P2;PMS_P1;PMS_P2;Temp;Humidity;BMP_temperature;BMP_pressure;BME280_temperature;BME280_humidity;BME280_pressure;Samples;Min_cycle;Max_cycle;Signal;HPM_P1;HPM_P2
2024/04/09 00:04:17;;;;;;;;;37.00;20.75;;;;;;;;10458208;28;43171;-61
2024/04/09 00:09:21;;;;;;;;;51.00;22.25;;;;;;;;10456652;28;43570;-62
2024/04/09 00:14:25;;;;;;;;;44.50;25.25;;;;;;;;10462507;28;43162;-62
2024/04/09 00:19:29;;;;;;;;;36.75;20.50;;;;;;;;10453539;28;43067;-61
2024/04/09 00:24:33;;;;;;;;;36.25;20.75;;;;;;;;10454064;28;42941;-61
2024/04/09 00:29:39;;;;;;;;;43.50;19.50;;;;;;;;10436069;28;43332;-61
2024/04/09 00:34:42;;;;;;;;;37.00;22.00;;;;;;;;10452695;28;43061;-61
2024/04/09 00:39:46;;;;;;;;;41.00;23.00;;;;;;;;10453714;28;43834;-61
2024/04/09 00:44:50;;;;;;;;;44.50;23.50;;;;;;;;10452093;28;43208;-61
2024/04/09 00:49:54;;;;;;;;;40.00;27.25;;;;;;;;10453653;28;42910;-61
2024/04/09 00:54:58;;;;;;;;;37.25;19.75;;;;;;;;10453115;28;43506;-61
2024/04/09 01:00:06;;;;;;;;;40.50;21.25;;;;;;;;10452368;28;43287;-61
2024/04/09 01:05:13;;;;;;;;;43.00;24.50;;;;;;;;10485836;28;48504;-62
2024/04/09 01:10:16;;;;;;;;;39.00;23.50;;;;;;;;10478388;28;48629;-62
2024/04/09 01:15:20;;;;;;;;;42.25;23.50;;;;;;;;10493977;28;42984;-61
2024/04/09 01:20:24;;;;;;;;;39.75;20.75;;;;;;;;10435964;28;45092;-62
2024/04/09 01:25:28;;;;;;;;;40.75;21.25;;;;;;;;10435950;28;43522;-62
2024/04/09 01:30:32;;;;;;;;;45.00;24.25;;;;;;;;10451302;28;43015;-62
2024/04/09 01:35:35;;;;;;;;;44.75;22.25;;;;;;;;10448515;28;43062;-61
2024/04/09 01:40:39;;;;;;;;;46.00;22.25;;;;;;;;10454268;28;42975;-62
2024/04/09 01:45:43;;;;;;;;;42.25;21.50;;;;;;;;10459306;28;43771;-61
2024/04/09 01:50:47;;;;;;;;;39.25;23.50;;;;;;;;10458879;28;48697;-62
2024/04/09 01:56:00;;;;;;;;;44.75;22.00;;;;;;;;10458222;28;43261;-61
2024/04/09 02:01:05;;;;;;;;;41.75;22.75;;;;;;;;10457284;28;43077;-62
2024/04/09 02:06:14;;;;;;;;;42.00;21.00;;;;;;;;10458064;28;43020;-61
2024/04/09 02:11:22;;;;;;;;;42.25;20.25;;;;;;;;10441718;28;43038;-61
2024/04/09 02:16:26;;;;;;;;;40.00;24.00;;;;;;;;10458787;28;42961;-62
2024/04/09 02:21:31;;;;;;;;;44.75;20.50;;;;;;;;10457807;28;43085;-62
2024/04/09 02:26:34;;;;;;;;;36.00;19.50;;;;;;;;10449836;28;43482;-61
2024/04/09 02:31:38;;;;;;;;;37.50;21.75;;;;;;;;10457116;28;43082;-62
2024/04/09 02:36:41;;;;;;;;;44.00;24.75;;;;;;;;10457535;28;43134;-61
2024/04/09 02:41:44;;;;;;;;;44.50;22.75;;;;;;;;10457627;28;43237;-61
2024/04/09 02:46:49;;;;;;;;;41.50;21.25;;;;;;;;10431006;28;43786;-61
2024/04/09 02:51:53;;;;;;;;;44.00;21.50;;;;;;;;10430625;28;44283;-61
2024/04/09 02:56:58;;;;;;;;;43.75;20.25;;;;;;;;10432476;28;44854;-62
2024/04/09 03:02:04;;;;;;;;;35.75;18.50;;;;;;;;10430816;28;43066;-61
2024/04/09 03:07:07;;;;;;;;;37.00;21.25;;;;;;;;10400214;28;43573;-62
2024/04/09 03:12:12;;;;;;;;;41.00;20.25;;;;;;;;10383617;28;42958;-60
2024/04/09 03:17:15;;;;;;;;;35.00;21.00;;;;;;;;10409876;28;42959;-64
2024/04/09 03:22:19;;;;;;;;;37.75;18.25;;;;;;;;10395130;28;43764;-61
2024/04/09 03:27:22;;;;;;;;;39.25;18.75;;;;;;;;10399294;28;42999;-62
2024/04/09 03:32:28;;;;;;;;;32.75;17.00;;;;;;;;10408865;28;43119;-63
2024/04/09 03:37:31;;;;;;;;;45.50;19.50;;;;;;;;10401380;28;43664;-61
2024/04/09 03:42:34;;;;;;;;;38.00;21.75;;;;;;;;10402059;28;43976;-59
2024/04/09 03:47:38;;;;;;;;;40.75;16.50;;;;;;;;10391405;28;43214;-60
2024/04/09 03:52:42;;;;;;;;;40.25;19.75;;;;;;;;10386390;28;42968;-59
2024/04/09 03:57:46;;;;;;;;;39.00;17.75;;;;;;;;10380937;28;42948;-60
2024/04/09 04:02:51;;;;;;;;;37.75;16.50;;;;;;;;10385640;28;43460;-60
2024/04/09 04:07:54;;;;;;;;;30.75;16.75;;;;;;;;10387352;28;43176;-61
2024/04/09 04:12:57;;;;;;;;;38.00;18.00;;;;;;;;10385186;28;44180;-60
2024/04/09 04:18:00;;;;;;;;;36.75;16.00;;;;;;;;10387073;28;43730;-60
2024/04/09 04:23:04;;;;;;;;;35.00;16.00;;;;;;;;10387404;28;43059;-60
2024/04/09 04:28:08;;;;;;;;;39.50;16.75;;;;;;;;10393735;28;44056;-60
2024/04/09 04:33:11;;;;;;;;;36.25;17.25;;;;;;;;10385693;28;43015;-60
2024/04/09 04:38:15;;;;;;;;;33.25;16.75;;;;;;;;10387029;28;43381;-61
2024/04/09 04:43:18;;;;;;;;;29.00;15.00;;;;;;;;10386759;28;42918;-60
2024/04/09 04:48:22;;;;;;;;;30.75;15.75;;;;;;;;10395512;28;43030;-61
2024/04/09 04:53:26;;;;;;;;;40.75;16.25;;;;;;;;10400014;28;43661;-61
2024/04/09 04:58:30;;;;;;;;;35.00;16.50;;;;;;;;10393893;28;43466;-61
2024/04/09 05:03:34;;;;;;;;;30.50;15.00;;;;;;;;10402339;28;43991;-62
2024/04/09 05:08:38;;;;;;;;;33.25;18.50;;;;;;;;10401926;28;43096;-61
2024/04/09 05:13:41;;;;;;;;;34.00;16.25;;;;;;;;10395634;28;43702;-61
2024/04/09 05:18:45;;;;;;;;;34.00;14.50;;;;;;;;10388107;28;43672;-62
2024/04/09 05:23:49;;;;;;;;;38.75;18.25;;;;;;;;10415893;28;45045;-60
2024/04/09 05:28:55;;;;;;;;;38.75;21.50;;;;;;;;10405373;28;42998;-60
2024/04/09 05:33:59;;;;;;;;;50.00;24.00;;;;;;;;10419559;28;43131;-61
2024/04/09 05:39:03;;;;;;;;;39.50;17.75;;;;;;;;10418302;28;43644;-61
2024/04/09 05:44:08;;;;;;;;;46.75;20.75;;;;;;;;10415841;28;43659;-62
2024/04/09 05:49:11;;;;;;;;;40.00;21.50;;;;;;;;10470786;28;43230;-62
2024/04/09 05:54:17;;;;;;;;;31.75;18.25;;;;;;;;10460877;28;43118;-63
2024/04/09 05:59:20;;;;;;;;;40.00;20.75;;;;;;;;10446973;28;44286;-59
2024/04/09 06:04:24;;;;;;;;;32.50;14.75;;;;;;;;10458833;28;42980;-64
2024/04/09 06:09:27;;;;;;;;;38.25;16.50;;;;;;;;10462560;28;43472;-61
2024/04/09 06:14:32;;;;;;;;;35.00;16.00;;;;;;;;10455165;28;42988;-61
2024/04/09 06:19:35;;;;;;;;;38.25;19.50;;;;;;;;10457678;28;43023;-62
2024/04/09 06:24:39;;;;;;;;;42.75;20.50;;;;;;;;10455100;28;44051;-64
2024/04/09 06:29:44;;;;;;;;;37.50;18.25;;;;;;;;10453314;28;44064;-61
2024/04/09 06:34:48;;;;;;;;;32.75;15.75;;;;;;;;10465008;28;43289;-64
2024/04/09 06:39:51;;;;;;;;;38.50;16.75;;;;;;;;10401333;28;43824;-62
2024/04/09 06:44:55;;;;;;;;;37.25;19.00;;;;;;;;10441877;28;43353;-61
2024/04/09 06:50:04;;;;;;;;;34.00;15.25;;;;;;;;10447484;28;42993;-60
2024/04/09 06:55:07;;;;;;;;;37.75;20.25;;;;;;;;10429472;28;43358;-59
2024/04/09 07:00:14;;;;;;;;;42.50;21.25;;;;;;;;10463290;28;49370;-61
2024/04/09 07:05:18;;;;;;;;;33.25;18.25;;;;;;;;10462181;28;43921;-63
2024/04/09 07:10:21;;;;;;;;;33.25;16.00;;;;;;;;10456309;28;49862;-60
2024/04/09 07:15:28;;;;;;;;;43.75;19.50;;;;;;;;10460308;28;43016;-62
2024/04/09 07:20:30;;;;;;;;;35.50;16.25;;;;;;;;10467886;27;48740;-62
2024/04/09 07:25:34;;;;;;;;;37.75;19.25;;;;;;;;10462126;28;48342;-62
2024/04/09 07:30:37;;;;;;;;;37.75;17.00;;;;;;;;10463054;28;43800;-61
2024/04/09 07:35:41;;;;;;;;;44.00;19.00;;;;;;;;10459357;28;43602;-61
2024/04/09 07:40:44;;;;;;;;;35.00;14.75;;;;;;;;10454322;28;44060;-62
2024/04/09 07:45:54;;;;;;;;;35.75;16.25;;;;;;;;10459099;28;42992;-62
2024/04/09 07:50:58;;;;;;;;;38.00;16.50;;;;;;;;10469055;27;43114;-62
2024/04/09 07:56:08;;;;;;;;;33.00;15.00;;;;;;;;10459450;28;43142;-63
2024/04/09 08:01:10;;;;;;;;;38.00;16.00;;;;;;;;10475521;28;42986;-60
2024/04/09 08:06:14;;;;;;;;;32.25;12.50;;;;;;;;10460331;28;42972;-60
2024/04/09 08:11:17;;;;;;;;;31.00;12.00;;;;;;;;10453328;28;43014;-61
2024/04/09 08:16:21;;;;;;;;;33.25;12.75;;;;;;;;10453957;28;43497;-61
2024/04/09 08:21:24;;;;;;;;;34.25;12.50;;;;;;;;10456213;28;43786;-61
2024/04/09 08:26:28;;;;;;;;;30.75;12.75;;;;;;;;10460735;28;43139;-61
2024/04/09 08:31:32;;;;;;;;;32.25;13.00;;;;;;;;10464168;28;43147;-61
2024/04/09 08:36:36;;;;;;;;;26.75;11.50;;;;;;;;10463011;28;43513;-61
2024/04/09 08:41:40;;;;;;;;;37.25;15.75;;;;;;;;10456868;28;43242;-60
2024/04/09 08:46:44;;;;;;;;;34.00;13.75;;;;;;;;10448435;28;42989;-63
2024/04/09 08:51:47;;;;;;;;;39.00;16.50;;;;;;;;10454628;28;43949;-63
2024/04/09 08:56:54;;;;;;;;;28.50;12.25;;;;;;;;10456173;28;43038;-61
2024/04/09 09:02:03;;;;;;;;;30.75;14.25;;;;;;;;10473452;28;43021;-62
2024/04/09 09:07:13;;;;;;;;;29.00;14.50;;;;;;;;10484784;28;43103;-61
2024/04/09 09:12:16;;;;;;;;;31.00;15.00;;;;;;;;10457947;28;42976;-61
2024/04/09 09:17:21;;;;;;;;;30.50;13.50;;;;;;;;10490128;27;43051;-61
2024/04/09 09:22:24;;;;;;;;;30.00;12.75;;;;;;;;10457234;27;43897;-61
2024/04/09 09:27:27;;;;;;;;;31.25;15.00;;;;;;;;10431436;28;43833;-61
2024/04/09 09:32:31;;;;;;;;;29.50;11.50;;;;;;;;10431965;28;43580;-59
2024/04/09 09:37:35;;;;;;;;;27.00;12.00;;;;;;;;10457740;28;43003;-60
2024/04/09 09:42:39;;;;;;;;;27.75;11.75;;;;;;;;10459946;28;43656;-60
2024/04/09 09:47:43;;;;;;;;;26.50;8.75;;;;;;;;10413946;28;43011;-61
2024/04/09 09:52:48;;;;;;;;;30.00;14.00;;;;;;;;10411131;28;43212;-59
2024/04/09 09:57:53;;;;;;;;;37.25;16.00;;;;;;;;10416212;28;42996;-59
2024/04/09 10:02:58;;;;;;;;;42.00;18.50;;;;;;;;10388147;28;43005;-59
2024/04/09 10:08:01;;;;;;;;;34.00;18.25;;;;;;;;10391679;28;43775;-59
2024/04/09 10:13:08;;;;;;;;;35.75;19.25;;;;;;;;10394497;28;43238;-60
2024/04/09 10:18:26;;;;;;;;;40.25;18.00;;;;;;;;10399630;28;43013;-60
2024/04/09 10:23:34;;;;;;;;;45.00;21.25;;;;;;;;10388473;28;43230;-59
2024/04/09 10:28:38;;;;;;;;;39.25;18.00;;;;;;;;10416418;28;43672;-60
2024/04/09 10:33:42;;;;;;;;;40.75;20.50;;;;;;;;10429924;28;43014;-59
2024/04/09 10:38:47;;;;;;;;;36.00;16.75;;;;;;;;10428921;28;43765;-60
2024/04/09 10:43:50;;;;;;;;;32.75;16.75;;;;;;;;10454141;28;43358;-58
2024/04/09 10:48:54;;;;;;;;;44.50;16.50;;;;;;;;10401291;28;43398;-58
2024/04/09 10:54:03;;;;;;;;;47.75;17.25;;;;;;;;10363660;28;43123;-61
2024/04/09 10:59:17;;;;;;;;;50.00;26.00;;;;;;;;10391424;28;44486;-59
2024/04/09 11:04:22;;;;;;;;;47.75;23.25;;;;;;;;10402072;28;43510;-60
2024/04/09 11:09:25;;;;;;;;;61.75;20.25;;;;;;;;10427392;28;43780;-61
2024/04/09 11:14:29;;;;;;;;;46.50;18.00;;;;;;;;10387959;28;43657;-58
2024/04/09 11:19:33;;;;;;;;;55.50;20.75;;;;;;;;10386226;28;43395;-59
2024/04/09 11:24:36;;;;;;;;;47.00;20.00;;;;;;;;10387447;28;43155;-60
2024/04/09 11:29:47;;;;;;;;;48.00;18.50;;;;;;;;10388385;28;43759;-60
2024/04/09 11:34:51;;;;;;;;;46.50;17.50;;;;;;;;10389380;28;42989;-59
2024/04/09 11:39:55;;;;;;;;;45.25;21.75;;;;;;;;10388258;28;43168;-61
2024/04/09 11:45:00;;;;;;;;;48.75;20.50;;;;;;;;10384313;28;43920;-59
2024/04/09 11:50:06;;;;;;;;;44.75;21.75;;;;;;;;10401304;28;42936;-59
2024/04/09 11:55:10;;;;;;;;;41.00;18.75;;;;;;;;10411073;28;43490;-61
2024/04/09 12:00:14;;;;;;;;;51.00;17.50;;;;;;;;10451806;28;42943;-61
2024/04/09 12:05:19;;;;;;;;;49.00;19.75;;;;;;;;10458643;28;43777;-60
2024/04/09 12:10:22;;;;;;;;;46.50;18.25;;;;;;;;10455564;28;43425;-61
2024/04/09 12:15:26;;;;;;;;;44.25;17.75;;;;;;;;10460257;28;43475;-60
2024/04/09 12:20:30;;;;;;;;;46.50;19.25;;;;;;;;10452570;28;44041;-60
2024/04/09 12:25:33;;;;;;;;;44.25;16.75;;;;;;;;10453104;28;44020;-62
2024/04/09 12:30:37;;;;;;;;;44.00;16.00;;;;;;;;10451482;28;43005;-61
2024/04/09 12:35:41;;;;;;;;;48.50;26.75;;;;;;;;10419100;28;43387;-60
2024/04/09 12:40:44;;;;;;;;;49.50;22.75;;;;;;;;10422424;28;43013;-59
2024/04/09 12:45:48;;;;;;;;;46.25;21.75;;;;;;;;10451042;28;49227;-60
2024/04/09 12:50:52;;;;;;;;;42.00;19.25;;;;;;;;10449989;28;51388;-61
2024/04/09 12:55:55;;;;;;;;;50.00;19.75;;;;;;;;10491373;28;45330;-61
2024/04/09 13:01:00;;;;;;;;;44.00;19.50;;;;;;;;10481272;28;42988;-61
2024/04/09 13:06:06;;;;;;;;;51.75;18.75;;;;;;;;10447452;28;43013;-61
2024/04/09 13:11:09;;;;;;;;;44.75;20.25;;;;;;;;10449381;28;42996;-61
2024/04/09 13:16:14;;;;;;;;;48.00;19.25;;;;;;;;10449187;28;43503;-61
2024/04/09 13:21:18;;;;;;;;;44.00;18.00;;;;;;;;10448141;28;43378;-61
2024/04/09 13:26:23;;;;;;;;;46.25;23.50;;;;;;;;10450897;28;43101;-61
2024/04/09 13:31:40;;;;;;;;;44.75;18.25;;;;;;;;10448945;28;43002;-61
2024/04/09 13:36:44;;;;;;;;;42.75;15.25;;;;;;;;10456116;28;43981;-61
2024/04/09 13:41:48;;;;;;;;;48.50;17.25;;;;;;;;10458211;28;42996;-61
2024/04/09 13:46:52;;;;;;;;;49.00;20.25;;;;;;;;10458810;28;43005;-61
2024/04/09 13:51:56;;;;;;;;;44.50;19.00;;;;;;;;10458733;28;43006;-61
2024/04/09 13:56:59;;;;;;;;;44.50;15.50;;;;;;;;10458686;28;43768;-61
2024/04/09 14:02:02;;;;;;;;;47.00;21.00;;;;;;;;10441052;28;43077;-61
2024/04/09 14:07:07;;;;;;;;;47.50;19.25;;;;;;;;10440918;28;43867;-61
2024/04/09 14:12:10;;;;;;;;;39.50;16.50;;;;;;;;10459670;28;42959;-61
2024/04/09 14:17:13;;;;;;;;;40.25;18.50;;;;;;;;10458509;28;43001;-61
2024/04/09 14:22:17;;;;;;;;;49.25;16.50;;;;;;;;10458721;28;43154;-61
2024/04/09 14:27:21;;;;;;;;;43.50;17.75;;;;;;;;10452984;28;43062;-61
2024/04/09 14:32:24;;;;;;;;;38.75;17.25;;;;;;;;10456778;28;43768;-61
2024/04/09 14:37:28;;;;;;;;;43.00;16.00;;;;;;;;10454904;28;43449;-61
2024/04/09 14:42:32;;;;;;;;;47.00;17.75;;;;;;;;10457750;28;43643;-61
2024/04/09 14:47:36;;;;;;;;;36.50;17.75;;;;;;;;10431885;28;43686;-61
2024/04/09 14:52:40;;;;;;;;;37.25;15.50;;;;;;;;10432413;28;43129;-61
2024/04/09 14:57:44;;;;;;;;;40.50;17.50;;;;;;;;10432301;28;42978;-61
2024/04/09 15:02:48;;;;;;;;;38.75;15.25;;;;;;;;10431851;28;44037;-60
2024/04/09 15:07:53;;;;;;;;;46.50;15.00;;;;;;;;10432492;28;42906;-60
2024/04/09 15:13:00;;;;;;;;;40.75;13.75;;;;;;;;10431641;28;43827;-60
2024/04/09 15:18:04;;;;;;;;;45.00;17.25;;;;;;;;10432040;28;43667;-60
2024/04/09 15:23:08;;;;;;;;;40.25;21.25;;;;;;;;10423099;28;42963;-60
2024/04/09 15:28:13;;;;;;;;;39.50;20.50;;;;;;;;10431116;28;43250;-60
2024/04/09 15:33:20;;;;;;;;;43.25;16.00;;;;;;;;10431641;28;43519;-60
2024/04/09 15:38:24;;;;;;;;;34.50;16.50;;;;;;;;10431222;28;44159;-60
2024/04/09 15:43:28;;;;;;;;;43.25;16.50;;;;;;;;10432109;28;45078;-60
2024/04/09 15:48:32;;;;;;;;;37.75;18.50;;;;;;;;10430233;28;44496;-60
2024/04/09 15:53:35;;;;;;;;;37.75;16.25;;;;;;;;10429380;28;42985;-60
2024/04/09 15:58:40;;;;;;;;;45.50;16.25;;;;;;;;10430068;28;42960;-60
2024/04/09 16:03:44;;;;;;;;;37.75;18.50;;;;;;;;10429686;28;43006;-60
2024/04/09 16:08:48;;;;;;;;;39.75;17.00;;;;;;;;10429028;28;43618;-60
2024/04/09 16:13:51;;;;;;;;;37.25;16.75;;;;;;;;10429303;28;43214;-60
2024/04/09 16:18:57;;;;;;;;;36.00;15.75;;;;;;;;10429138;28;43763;-61
2024/04/09 16:24:00;;;;;;;;;37.75;19.00;;;;;;;;10414383;28;42890;-61
2024/04/09 16:29:04;;;;;;;;;44.00;16.75;;;;;;;;10387214;28;42979;-61
2024/04/09 16:34:08;;;;;;;;;36.00;16.50;;;;;;;;10387392;28;43280;-61
2024/04/09 16:39:13;;;;;;;;;41.50;14.25;;;;;;;;10387267;28;43079;-61
2024/04/09 16:44:16;;;;;;;;;32.25;14.75;;;;;;;;10388015;28;43579;-61
2024/04/09 16:49:19;;;;;;;;;35.75;17.00;;;;;;;;10465392;28;43035;-61
2024/04/09 16:54:25;;;;;;;;;32.75;13.75;;;;;;;;10478107;28;42961;-61
2024/04/09 16:59:28;;;;;;;;;41.50;19.00;;;;;;;;10495224;28;43768;-61
2024/04/09 17:04:32;;;;;;;;;38.00;15.25;;;;;;;;10494198;28;43008;-61
2024/04/09 17:09:36;;;;;;;;;35.75;15.75;;;;;;;;10477977;28;45499;-61
2024/04/09 17:14:40;;;;;;;;;38.50;18.75;;;;;;;;10502688;28;43015;-61
2024/04/09 17:19:46;;;;;;;;;37.75;15.50;;;;;;;;10502599;28;42997;-61
2024/04/09 17:24:50;;;;;;;;;29.00;12.00;;;;;;;;10464194;28;44935;-61
2024/04/09 17:29:54;;;;;;;;;37.50;15.00;;;;;;;;10484983;28;43597;-60
2024/04/09 17:34:58;;;;;;;;;39.50;18.25;;;;;;;;10500814;28;43226;-60
2024/04/09 17:40:03;;;;;;;;;33.75;13.75;;;;;;;;10501392;28;43449;-60
2024/04/09 17:45:08;;;;;;;;;43.75;19.00;;;;;;;;10500613;28;43405;-60
2024/04/09 17:50:12;;;;;;;;;39.25;17.25;;;;;;;;10460006;28;43018;-60
2024/04/09 17:55:16;;;;;;;;;34.50;18.75;;;;;;;;10458728;28;43519;-60
2024/04/09 18:00:20;;;;;;;;;31.75;14.75;;;;;;;;10458990;28;43299;-60
2024/04/09 18:05:23;;;;;;;;;34.75;16.50;;;;;;;;10458941;28;43075;-60
2024/04/09 18:10:27;;;;;;;;;36.00;17.00;;;;;;;;10500313;27;48603;-60
2024/04/09 18:15:31;;;;;;;;;29.00;15.75;;;;;;;;10499283;28;44067;-60
2024/04/09 18:20:36;;;;;;;;;29.25;14.50;;;;;;;;10500464;27;43280;-60
2024/04/09 18:25:39;;;;;;;;;34.75;16.25;;;;;;;;10477127;28;44148;-60
2024/04/09 18:30:44;;;;;;;;;34.00;17.50;;;;;;;;10499804;28;43088;-60
2024/04/09 18:35:48;;;;;;;;;38.00;17.00;;;;;;;;10500058;28;43974;-60
2024/04/09 18:41:05;;;;;;;;;29.50;14.50;;;;;;;;10499312;28;49420;-60
2024/04/09 18:46:08;;;;;;;;;35.25;13.75;;;;;;;;10492229;28;48576;-60
2024/04/09 18:51:13;;;;;;;;;30.00;14.00;;;;;;;;10498666;27;42981;-60
2024/04/09 18:56:17;;;;;;;;;30.00;14.50;;;;;;;;10498567;28;43614;-60
2024/04/09 19:01:21;;;;;;;;;32.75;13.75;;;;;;;;10498777;28;43568;-60
2024/04/09 19:06:25;;;;;;;;;32.75;15.00;;;;;;;;10499435;27;43163;-60
2024/04/09 19:11:30;;;;;;;;;33.50;15.75;;;;;;;;10498744;27;42980;-60
2024/04/09 19:16:33;;;;;;;;;35.00;14.50;;;;;;;;10481793;28;43025;-61
2024/04/09 19:21:38;;;;;;;;;31.75;13.25;;;;;;;;10497094;28;43220;-61
2024/04/09 19:26:41;;;;;;;;;33.00;17.50;;;;;;;;10461266;28;42983;-60
2024/04/09 19:31:45;;;;;;;;;38.50;15.00;;;;;;;;10456141;28;43022;-60
2024/04/09 19:36:48;;;;;;;;;34.00;16.50;;;;;;;;10455111;28;43513;-61
2024/04/09 19:41:53;;;;;;;;;31.25;15.75;;;;;;;;10453258;28;43247;-60
2024/04/09 19:46:57;;;;;;;;;30.50;15.25;;;;;;;;10436613;28;42914;-60
2024/04/09 19:52:01;;;;;;;;;31.50;16.50;;;;;;;;10455559;28;42974;-60
2024/04/09 19:57:05;;;;;;;;;37.25;17.50;;;;;;;;10455137;28;43597;-60
2024/04/09 20:02:09;;;;;;;;;36.50;16.50;;;;;;;;10464974;28;42962;-61
2024/04/09 20:07:14;;;;;;;;;30.25;16.25;;;;;;;;10470423;28;43152;-60
2024/04/09 20:12:19;;;;;;;;;35.00;16.50;;;;;;;;10454452;28;43180;-61
2024/04/09 20:17:23;;;;;;;;;39.25;18.50;;;;;;;;10437043;28;44360;-60
2024/04/09 20:22:27;;;;;;;;;37.00;20.25;;;;;;;;10453948;28;44206;-61
2024/04/09 20:27:31;;;;;;;;;33.25;18.25;;;;;;;;10454048;28;43117;-60
2024/04/09 20:32:34;;;;;;;;;35.75;17.00;;;;;;;;10437218;28;43016;-60
2024/04/09 20:37:38;;;;;;;;;34.50;19.50;;;;;;;;10453949;28;43644;-60
2024/04/09 20:42:42;;;;;;;;;37.75;18.50;;;;;;;;10453218;28;43939;-61
2024/04/09 20:47:45;;;;;;;;;29.00;16.00;;;;;;;;10452497;28;42953;-60
2024/04/09 20:52:49;;;;;;;;;36.75;18.75;;;;;;;;10437589;28;42968;-60
2024/04/09 20:57:52;;;;;;;;;33.75;20.25;;;;;;;;10453194;28;43078;-60
2024/04/09 21:02:56;;;;;;;;;39.00;20.25;;;;;;;;10452401;28;43284;-60
2024/04/09 21:07:59;;;;;;;;;32.75;17.00;;;;;;;;10453350;28;43220;-60
2024/04/09 21:13:03;;;;;;;;;39.00;19.50;;;;;;;;10452476;28;42998;-60
2024/04/09 21:18:07;;;;;;;;;34.75;17.25;;;;;;;;10452553;28;43773;-60
2024/04/09 21:23:11;;;;;;;;;35.50;17.00;;;;;;;;10452434;28;43010;-60
2024/04/09 21:28:14;;;;;;;;;40.50;22.00;;;;;;;;10445477;28;42978;-60
2024/04/09 21:33:19;;;;;;;;;33.00;15.00;;;;;;;;10436746;28;42989;-60
2024/04/09 21:38:22;;;;;;;;;37.00;18.00;;;;;;;;10451846;28;43349;-60
2024/04/09 21:43:25;;;;;;;;;34.00;18.75;;;;;;;;10450774;28;43598;-60
2024/04/09 21:48:29;;;;;;;;;38.50;16.75;;;;;;;;10425900;28;43389;-60
2024/04/09 21:53:33;;;;;;;;;36.25;21.75;;;;;;;;10427801;28;43941;-60
2024/04/09 21:58:36;;;;;;;;;36.00;19.75;;;;;;;;10412574;28;45132;-60
2024/04/09 22:03:39;;;;;;;;;35.75;20.50;;;;;;;;10434839;28;43579;-60
2024/04/09 22:08:43;;;;;;;;;32.50;19.50;;;;;;;;10432946;28;43780;-60
2024/04/09 22:13:47;;;;;;;;;43.75;23.50;;;;;;;;10433339;28;42952;-60
2024/04/09 22:18:51;;;;;;;;;41.75;20.25;;;;;;;;10416382;28;42970;-62
2024/04/09 22:23:56;;;;;;;;;35.25;17.00;;;;;;;;10400108;28;44004;-61
2024/04/09 22:29:00;;;;;;;;;36.00;19.25;;;;;;;;10432443;28;43504;-62
2024/04/09 22:34:04;;;;;;;;;40.00;22.25;;;;;;;;10433049;28;43095;-61
2024/04/09 22:39:09;;;;;;;;;39.00;21.50;;;;;;;;10416529;28;43197;-60
2024/04/09 22:44:13;;;;;;;;;36.25;19.00;;;;;;;;10431890;28;42954;-62
2024/04/09 22:49:16;;;;;;;;;39.50;22.00;;;;;;;;10393971;28;43012;-61
2024/04/09 22:54:20;;;;;;;;;45.25;20.00;;;;;;;;10395686;28;44912;-59
2024/04/09 22:59:23;;;;;;;;;45.00;23.00;;;;;;;;10389866;28;43701;-61
2024/04/09 23:04:27;;;;;;;;;43.75;22.25;;;;;;;;10390865;28;43615;-58
2024/04/09 23:09:30;;;;;;;;;36.00;18.25;;;;;;;;10386453;28;43140;-61
2024/04/09 23:14:33;;;;;;;;;43.25;24.25;;;;;;;;10391882;28;44175;-67
2024/04/09 23:19:37;;;;;;;;;41.00;20.25;;;;;;;;10359540;28;43333;-60
2024/04/09 23:24:40;;;;;;;;;41.25;20.00;;;;;;;;10388810;28;42998;-61
2024/04/09 23:29:44;;;;;;;;;43.50;22.75;;;;;;;;10388399;28;43019;-62
2024/04/09 23:34:48;;;;;;;;;44.25;21.00;;;;;;;;10386574;28;43538;-59
2024/04/09 23:39:51;;;;;;;;;38.00;23.75;;;;;;;;10373837;28;43780;-63
2024/04/09 23:44:55;;;;;;;;;47.25;22.00;;;;;;;;10388107;28;43304;-62
2024/04/09 23:49:58;;;;;;;;;34.25;20.00;;;;;;;;10454394;28;44117;-62
2024/04/09 23:55:02;;;;;;;;;45.50;23.75;;;;;;;;10435353;28;43067;-63
